createdAt,value
2019-05-03T00:00:26.603Z,0.00
2019-05-03T00:01:26.575Z,0.00
2019-05-03T00:02:26.545Z,0.00
2019-05-03T00:03:26.535Z,0.00
2019-05-03T00:04:26.538Z,0.00
2019-05-03T00:05:26.533Z,0.00
2019-05-03T00:06:26.506Z,0.00
2019-05-03T00:07:26.515Z,0.00
2019-05-03T00:08:26.496Z,0.00
2019-05-03T00:09:26.478Z,0.00
2019-05-03T00:10:26.481Z,0.00
2019-05-03T00:11:26.451Z,0.00
2019-05-03T00:12:26.467Z,0.00
2019-05-03T00:13:26.428Z,0.00
2019-05-03T00:14:27.051Z,0.00
2019-05-03T00:15:26.421Z,0.00
2019-05-03T00:16:26.439Z,0.00
2019-05-03T00:17:26.413Z,0.00
2019-05-03T00:18:26.386Z,0.00
2019-05-03T00:19:26.369Z,0.00
2019-05-03T00:20:26.394Z,0.00
2019-05-03T00:21:26.381Z,0.00
2019-05-03T00:22:26.335Z,0.00
2019-05-03T00:23:26.314Z,0.00
2019-05-03T00:24:26.302Z,0.00
2019-05-03T00:25:26.334Z,0.00
2019-05-03T00:26:26.291Z,0.00
2019-05-03T00:27:26.271Z,0.00
2019-05-03T00:28:26.271Z,0.00
2019-05-03T00:29:26.256Z,0.00
2019-05-03T00:30:26.254Z,0.00
2019-05-03T00:31:26.257Z,0.00
2019-05-03T00:32:26.215Z,0.00
2019-05-03T00:33:26.209Z,0.00
2019-05-03T00:34:26.200Z,0.00
2019-05-03T00:35:26.182Z,0.00
2019-05-03T00:36:26.206Z,0.00
2019-05-03T00:37:26.165Z,0.00
2019-05-03T00:38:26.156Z,0.00
2019-05-03T00:39:26.133Z,0.00
2019-05-03T00:40:26.137Z,0.00
2019-05-03T00:41:26.129Z,0.00
2019-05-03T00:42:26.109Z,0.00
2019-05-03T00:43:26.099Z,0.00
2019-05-03T00:44:26.134Z,0.00
2019-05-03T00:45:26.103Z,0.00
2019-05-03T00:46:26.083Z,0.00
2019-05-03T00:47:26.067Z,0.00
2019-05-03T00:48:26.061Z,0.00
2019-05-03T00:49:26.034Z,0.00
2019-05-03T00:50:26.025Z,0.00
2019-05-03T00:51:26.042Z,0.00
2019-05-03T00:52:26.003Z,0.00
2019-05-03T00:53:25.982Z,0.00
2019-05-03T00:54:25.976Z,0.00
2019-05-03T00:55:25.970Z,0.00
2019-05-03T00:56:25.968Z,0.00
2019-05-03T00:57:25.940Z,0.00
2019-05-03T00:58:25.931Z,0.00
2019-05-03T00:59:25.914Z,0.00
2019-05-03T01:00:25.919Z,0.00
2019-05-03T01:01:25.919Z,0.00
2019-05-03T01:02:26.370Z,0.00
2019-05-03T01:03:25.870Z,0.00
2019-05-03T01:04:25.855Z,0.00
2019-05-03T01:05:25.879Z,0.00
2019-05-03T01:06:25.864Z,0.00
2019-05-03T01:07:25.839Z,0.00
2019-05-03T01:08:25.851Z,0.00
2019-05-03T01:09:25.805Z,0.00
2019-05-03T01:10:25.800Z,0.00
2019-05-03T01:12:56.882Z,0.00
2019-05-03T01:13:57.841Z,0.00
2019-05-03T01:14:57.841Z,0.00
2019-05-03T01:15:57.827Z,0.00
2019-05-03T01:16:57.862Z,0.00
2019-05-03T01:17:57.826Z,0.00
2019-05-03T01:18:57.821Z,0.00
2019-05-03T01:19:57.788Z,0.00
2019-05-03T01:20:57.766Z,0.00
2019-05-03T01:21:57.773Z,0.00
2019-05-03T01:22:57.804Z,0.00
2019-05-03T01:23:57.732Z,0.00
2019-05-03T01:24:57.739Z,0.00
2019-05-03T01:25:57.725Z,0.00
2019-05-03T01:26:57.718Z,0.00
2019-05-03T01:27:57.695Z,0.00
2019-05-03T01:28:57.677Z,0.00
2019-05-03T01:29:57.675Z,0.00
2019-05-03T01:30:57.667Z,0.00
2019-05-03T01:31:57.675Z,0.00
2019-05-03T01:32:57.645Z,0.00
2019-05-03T01:33:57.626Z,0.00
2019-05-03T01:34:57.624Z,0.00
2019-05-03T01:35:57.640Z,0.00
2019-05-03T01:36:57.611Z,0.00
2019-05-03T01:37:57.593Z,0.00
2019-05-03T01:38:57.594Z,0.00
2019-05-03T01:39:57.588Z,0.00
2019-05-03T01:40:57.566Z,0.00
2019-05-03T01:41:57.588Z,0.00
2019-05-03T01:42:57.528Z,0.00
2019-05-03T01:43:57.522Z,0.00
2019-05-03T01:44:57.519Z,0.00
2019-05-03T01:45:57.506Z,0.00
2019-05-03T01:46:57.502Z,0.00
2019-05-03T01:47:57.473Z,0.00
2019-05-03T01:48:57.462Z,0.00
2019-05-03T01:49:57.451Z,0.00
2019-05-03T01:50:57.446Z,0.00
2019-05-03T01:51:57.527Z,0.00
2019-05-03T01:52:57.437Z,0.00
2019-05-03T01:53:57.415Z,0.00
2019-05-03T01:54:57.404Z,0.00
2019-05-03T01:55:57.395Z,0.00
2019-05-03T01:56:59.212Z,0.00
2019-05-03T01:57:57.392Z,0.00
2019-05-03T01:58:57.358Z,0.00
2019-05-03T01:59:57.363Z,0.00
2019-05-03T02:00:57.332Z,0.00
2019-05-03T02:01:57.318Z,0.00
2019-05-03T02:02:57.351Z,0.00
2019-05-03T02:03:57.298Z,0.00
2019-05-03T02:04:57.316Z,0.00
2019-05-03T02:05:57.282Z,0.00
2019-05-03T02:06:57.272Z,0.00
2019-05-03T02:07:57.280Z,0.00
2019-05-03T02:08:57.252Z,0.00
2019-05-03T02:09:57.231Z,0.00
2019-05-03T02:10:57.221Z,0.00
2019-05-03T02:11:57.221Z,0.00
2019-05-03T02:12:57.230Z,0.00
2019-05-03T02:13:57.208Z,0.00
2019-05-03T02:14:57.184Z,0.00
2019-05-03T02:15:57.164Z,0.00
2019-05-03T02:16:57.162Z,0.00
2019-05-03T02:17:57.164Z,0.00
2019-05-03T02:18:57.145Z,0.00
2019-05-03T02:19:57.134Z,0.00
2019-05-03T02:20:57.123Z,0.00
2019-05-03T02:21:57.116Z,0.00
2019-05-03T02:22:57.119Z,0.00
2019-05-03T02:23:57.087Z,0.00
2019-05-03T02:24:57.075Z,0.00
2019-05-03T02:25:59.265Z,0.00
2019-05-03T02:26:57.057Z,0.00
2019-05-03T02:27:57.082Z,0.00
2019-05-03T02:28:57.763Z,0.00
2019-05-03T02:29:57.021Z,0.00
2019-05-03T02:30:57.013Z,0.00
2019-05-03T02:31:57.005Z,0.00
2019-05-03T02:32:57.016Z,0.00
2019-05-03T02:33:56.970Z,0.00
2019-05-03T02:34:56.974Z,0.00
2019-05-03T02:35:56.963Z,0.00
2019-05-03T02:36:56.943Z,0.00
2019-05-03T02:37:56.964Z,0.00
2019-05-03T02:38:56.943Z,0.00
2019-05-03T02:39:56.924Z,0.00
2019-05-03T02:40:56.898Z,0.00
2019-05-03T02:42:02.877Z,0.00
2019-05-03T02:42:56.881Z,0.00
2019-05-03T02:43:56.910Z,0.00
2019-05-03T02:44:56.874Z,0.00
2019-05-03T02:45:56.962Z,0.00
2019-05-03T02:46:56.833Z,0.00
2019-05-03T02:47:56.823Z,0.00
2019-05-03T02:48:56.828Z,0.00
2019-05-03T02:49:56.817Z,0.00
2019-05-03T02:50:56.800Z,0.00
2019-05-03T02:51:56.811Z,0.00
2019-05-03T02:52:56.771Z,0.00
2019-05-03T02:53:57.330Z,0.00
2019-05-03T02:54:56.742Z,0.00
2019-05-03T02:56:13.414Z,0.00
2019-05-03T02:56:56.726Z,0.00
2019-05-03T02:57:56.742Z,0.00
2019-05-03T02:58:56.740Z,0.00
2019-05-03T02:59:56.689Z,0.00
2019-05-03T03:00:56.704Z,0.00
2019-05-03T03:01:56.692Z,0.00
2019-05-03T03:02:56.656Z,0.00
2019-05-03T03:03:56.704Z,0.00
2019-05-03T03:04:56.659Z,0.00
2019-05-03T03:05:56.635Z,0.00
2019-05-03T03:06:56.640Z,0.00
2019-05-03T03:07:56.613Z,0.00
2019-05-03T03:08:56.639Z,0.00
2019-05-03T03:09:56.617Z,0.00
2019-05-03T03:10:56.611Z,0.00
2019-05-03T03:11:56.579Z,0.00
2019-05-03T03:14:06.083Z,0.00
2019-05-03T03:15:06.793Z,0.00
2019-05-03T03:16:07.069Z,0.00
2019-05-03T03:17:06.872Z,0.00
2019-05-03T03:18:06.755Z,0.00
2019-05-03T03:19:07.138Z,0.00
2019-05-03T03:20:06.720Z,0.00
2019-05-03T03:21:06.718Z,0.00
2019-05-03T03:22:06.701Z,0.00
2019-05-03T03:23:06.688Z,0.00
2019-05-03T03:24:06.753Z,0.00
2019-05-03T03:25:06.685Z,4.00
2019-05-03T03:26:06.669Z,4.00
2019-05-03T03:27:06.666Z,0.00
2019-05-03T03:28:06.637Z,0.00
2019-05-03T03:29:06.649Z,4.00
2019-05-03T03:30:07.553Z,0.00
2019-05-03T03:31:08.467Z,4.00
2019-05-03T03:32:09.220Z,4.00
2019-05-03T03:33:08.633Z,4.00
2019-05-03T03:34:08.367Z,8.00
2019-05-03T03:35:11.718Z,8.00
2019-05-03T03:36:34.400Z,8.00
2019-05-03T03:37:10.200Z,8.00
2019-05-03T03:38:06.526Z,12.00
2019-05-03T03:39:06.547Z,12.00
2019-05-03T03:40:06.536Z,12.00
2019-05-03T03:41:06.529Z,12.00
2019-05-03T03:42:06.497Z,16.00
2019-05-03T03:43:06.480Z,20.00
2019-05-03T03:44:06.488Z,24.00
2019-05-03T03:45:06.493Z,28.00
2019-05-03T03:46:06.454Z,28.00
2019-05-03T03:47:06.429Z,32.00
2019-05-03T03:48:06.421Z,36.00
2019-05-03T03:49:07.149Z,40.00
2019-05-03T03:50:06.435Z,44.00
2019-05-03T03:51:06.403Z,48.00
2019-05-03T03:52:06.425Z,48.00
2019-05-03T03:53:06.820Z,56.00
2019-05-03T03:54:06.369Z,60.00
2019-05-03T03:55:06.638Z,64.00
2019-05-03T03:56:06.357Z,68.00
2019-05-03T03:57:08.051Z,72.00
2019-05-03T03:58:06.698Z,80.00
2019-05-03T03:59:06.304Z,84.00
2019-05-03T04:00:06.321Z,92.00
2019-05-03T04:01:06.328Z,100.00
2019-05-03T04:02:06.310Z,104.00
2019-05-03T04:03:06.279Z,112.00
2019-05-03T04:04:06.267Z,120.00
2019-05-03T04:05:06.253Z,132.00
2019-05-03T04:06:06.234Z,136.00
2019-05-03T04:07:06.779Z,148.00
2019-05-03T04:08:06.201Z,156.00
2019-05-03T04:09:06.194Z,164.00
2019-05-03T04:10:06.207Z,176.00
2019-05-03T04:11:06.525Z,188.00
2019-05-03T04:12:06.405Z,196.00
2019-05-03T04:13:06.162Z,208.00
2019-05-03T04:14:06.156Z,216.00
2019-05-03T04:15:06.147Z,228.00
2019-05-03T04:16:06.128Z,240.00
2019-05-03T04:17:06.137Z,248.00
2019-05-03T04:18:06.094Z,260.00
2019-05-03T04:19:06.117Z,272.00
2019-05-03T04:20:06.198Z,280.00
2019-05-03T04:21:06.077Z,292.00
2019-05-03T04:22:06.197Z,304.00
2019-05-03T04:23:06.040Z,312.00
2019-05-03T04:24:06.270Z,324.00
2019-05-03T04:25:06.105Z,332.00
2019-05-03T04:26:07.046Z,340.00
2019-05-03T04:27:15.531Z,340.00
2019-05-03T04:28:06.113Z,344.00
2019-05-03T04:29:05.976Z,348.00
2019-05-03T04:30:06.062Z,352.00
2019-05-03T04:31:06.361Z,352.00
2019-05-03T04:32:06.260Z,352.00
2019-05-03T04:33:06.350Z,360.00
2019-05-03T04:34:05.944Z,364.00
2019-05-03T04:35:05.908Z,376.00
2019-05-03T04:36:05.951Z,380.00
2019-05-03T04:37:05.893Z,388.00
2019-05-03T04:38:05.895Z,400.00
2019-05-03T04:39:05.874Z,412.00
2019-05-03T04:40:06.287Z,428.00
2019-05-03T04:41:06.248Z,440.00
2019-05-03T04:42:06.793Z,444.00
2019-05-03T04:43:06.376Z,460.00
2019-05-03T04:44:06.429Z,480.00
2019-05-03T04:45:06.071Z,500.00
2019-05-03T04:46:06.819Z,528.00
2019-05-03T04:47:06.809Z,568.00
2019-05-03T04:48:06.153Z,608.00
2019-05-03T04:49:05.907Z,640.00
2019-05-03T04:50:05.851Z,668.00
2019-05-03T04:51:06.135Z,688.00
2019-05-03T04:52:06.120Z,712.00
2019-05-03T04:53:05.827Z,744.00
2019-05-03T04:54:05.728Z,772.00
2019-05-03T04:55:06.547Z,796.00
2019-05-03T04:56:06.023Z,828.00
2019-05-03T04:57:06.620Z,856.00
2019-05-03T04:58:05.677Z,868.00
2019-05-03T04:59:05.683Z,880.00
2019-05-03T05:00:10.656Z,912.00
2019-05-03T05:01:06.263Z,968.00
2019-05-03T05:02:06.197Z,1028.00
2019-05-03T05:03:06.059Z,1080.00
2019-05-03T05:04:05.618Z,1144.00
2019-05-03T05:05:06.088Z,1224.00
2019-05-03T05:06:06.349Z,1328.00
2019-05-03T05:07:06.108Z,1456.00
2019-05-03T05:08:05.965Z,1584.00
2019-05-03T05:09:05.540Z,1708.00
2019-05-03T05:10:05.543Z,1808.00
2019-05-03T05:11:09.708Z,1900.00
2019-05-03T05:12:05.926Z,1992.00
2019-05-03T05:13:05.624Z,2104.00
2019-05-03T05:15:15.675Z,2384.00
2019-05-03T05:16:16.146Z,2520.00
2019-05-03T05:17:16.252Z,2704.00
2019-05-03T05:18:16.146Z,2780.00
2019-05-03T05:19:15.635Z,2860.00
2019-05-03T05:20:15.638Z,2968.00
2019-05-03T05:21:15.603Z,3052.00
2019-05-03T05:22:15.738Z,3116.00
2019-05-03T05:23:15.588Z,3160.00
2019-05-03T05:24:15.575Z,3244.00
2019-05-03T05:25:15.576Z,3308.00
2019-05-03T05:26:15.562Z,3392.00
2019-05-03T05:27:15.569Z,3536.00
2019-05-03T05:28:15.532Z,3652.00
2019-05-03T05:29:15.525Z,3728.00
2019-05-03T05:30:15.513Z,3860.00
2019-05-03T05:31:15.508Z,4640.00
2019-05-03T05:32:15.507Z,3972.00
2019-05-03T05:33:15.517Z,4112.00
2019-05-03T05:34:15.489Z,6776.00
2019-05-03T05:35:15.477Z,4692.00
2019-05-03T05:36:15.497Z,5192.00
2019-05-03T05:37:15.477Z,5312.00
2019-05-03T05:38:15.447Z,5824.00
2019-05-03T05:39:18.830Z,7952.00
2019-05-03T05:40:15.932Z,7080.00
2019-05-03T05:41:15.751Z,8616.00
2019-05-03T05:42:15.407Z,9124.00
2019-05-03T05:43:15.380Z,6700.00
2019-05-03T05:44:15.354Z,7016.00
2019-05-03T05:45:15.477Z,6344.00
2019-05-03T05:46:15.342Z,8404.00
2019-05-03T05:47:15.347Z,6224.00
2019-05-03T05:48:15.440Z,6396.00
2019-05-03T05:49:15.341Z,8564.00
2019-05-03T05:50:15.292Z,8836.00
2019-05-03T05:51:16.147Z,9464.00
2019-05-03T05:52:15.540Z,9632.00
2019-05-03T05:53:15.389Z,9696.00
2019-05-03T05:54:15.278Z,9652.00
2019-05-03T05:55:15.242Z,8496.00
2019-05-03T05:56:15.761Z,7920.00
2019-05-03T05:57:16.545Z,8024.00
2019-05-03T05:58:15.681Z,8572.00
2019-05-03T05:59:15.199Z,8400.00
2019-05-03T06:00:15.406Z,8220.00
2019-05-03T06:01:15.228Z,8296.00
2019-05-03T06:02:15.185Z,8332.00
2019-05-03T06:03:15.174Z,8416.00
2019-05-03T06:04:15.467Z,8360.00
2019-05-03T06:05:15.130Z,8500.00
2019-05-03T06:06:15.330Z,8532.00
2019-05-03T06:07:15.119Z,8548.00
2019-05-03T06:08:15.220Z,8492.00
2019-05-03T06:09:15.388Z,8532.00
2019-05-03T06:10:16.682Z,8648.00
2019-05-03T06:11:15.068Z,8788.00
2019-05-03T06:12:15.154Z,8892.00
2019-05-03T06:13:15.253Z,7748.00
2019-05-03T06:14:15.337Z,8256.00
2019-05-03T06:15:15.103Z,7740.00
2019-05-03T06:16:15.492Z,7768.00
2019-05-03T06:17:15.015Z,8656.00
2019-05-03T06:18:15.043Z,9088.00
2019-05-03T06:19:14.975Z,7724.00
2019-05-03T06:20:15.642Z,8588.00
2019-05-03T06:21:14.961Z,8436.00
2019-05-03T06:22:15.375Z,9720.00
2019-05-03T06:23:14.961Z,9916.00
2019-05-03T06:24:14.918Z,9960.00
2019-05-03T06:25:16.643Z,9960.00
2019-05-03T06:26:15.633Z,9940.00
2019-05-03T06:27:15.310Z,7624.00
2019-05-03T06:28:20.096Z,10096.00
2019-05-03T06:29:15.081Z,10332.00
2019-05-03T06:30:15.018Z,9436.00
2019-05-03T06:31:14.998Z,10888.00
2019-05-03T06:32:15.389Z,7180.00
2019-05-03T06:33:14.851Z,10972.00
2019-05-03T06:34:15.064Z,11128.00
2019-05-03T06:35:15.221Z,11012.00
2019-05-03T06:36:15.247Z,7192.00
2019-05-03T06:37:14.906Z,7504.00
2019-05-03T06:38:15.239Z,10740.00
2019-05-03T06:39:15.504Z,10488.00
2019-05-03T06:40:15.080Z,6432.00
2019-05-03T06:41:15.111Z,6312.00
2019-05-03T06:42:18.996Z,10196.00
2019-05-03T06:43:15.784Z,6268.00
2019-05-03T06:44:19.282Z,6000.00
2019-05-03T06:45:15.124Z,10264.00
2019-05-03T06:46:18.173Z,10208.00
2019-05-03T06:47:14.896Z,10424.00
2019-05-03T06:48:17.268Z,10592.00
2019-05-03T06:49:15.251Z,7528.00
2019-05-03T06:50:14.731Z,6036.00
2019-05-03T06:51:19.725Z,5960.00
2019-05-03T06:52:14.860Z,6100.00
2019-05-03T06:53:15.520Z,6248.00
2019-05-03T06:54:15.795Z,10416.00
2019-05-03T06:55:14.723Z,10584.00
2019-05-03T06:56:14.908Z,10980.00
2019-05-03T06:57:14.858Z,11460.00
2019-05-03T06:58:30.055Z,11512.00
2019-05-03T06:59:14.954Z,7268.00
2019-05-03T07:00:15.465Z,6992.00
2019-05-03T07:01:14.873Z,7536.00
2019-05-03T07:02:14.905Z,7832.00
2019-05-03T07:03:15.166Z,12644.00
2019-05-03T07:04:15.218Z,8256.00
2019-05-03T07:05:15.302Z,8664.00
2019-05-03T07:06:14.977Z,8472.00
2019-05-03T07:07:15.533Z,8960.00
2019-05-03T07:08:15.216Z,14256.00
2019-05-03T07:09:14.607Z,14472.00
2019-05-03T07:10:14.987Z,12128.00
2019-05-03T07:11:15.468Z,9504.00
2019-05-03T07:12:14.928Z,8996.00
2019-05-03T07:13:15.191Z,9268.00
2019-05-03T07:14:15.585Z,8996.00
2019-05-03T07:16:35.330Z,8032.00
2019-05-03T07:17:35.510Z,7904.00
2019-05-03T07:18:35.495Z,7980.00
2019-05-03T07:19:35.643Z,13348.00
2019-05-03T07:20:35.480Z,13480.00
2019-05-03T07:21:35.524Z,13384.00
2019-05-03T07:22:35.466Z,13056.00
2019-05-03T07:23:35.440Z,11316.00
2019-05-03T07:24:40.611Z,13312.00
2019-05-03T07:25:35.417Z,12892.00
2019-05-03T07:26:35.421Z,12684.00
2019-05-03T07:27:35.402Z,12868.00
2019-05-03T07:28:46.279Z,13088.00
2019-05-03T07:29:36.631Z,13632.00
2019-05-03T07:30:37.058Z,13736.00
2019-05-03T07:31:35.488Z,13736.00
2019-05-03T07:32:35.342Z,13616.00
2019-05-03T07:33:35.333Z,11164.00
2019-05-03T07:34:35.360Z,8056.00
2019-05-03T07:35:35.422Z,7516.00
2019-05-03T07:36:35.672Z,7000.00
2019-05-03T07:37:35.339Z,6672.00
2019-05-03T07:38:35.276Z,6336.00
2019-05-03T07:39:35.277Z,6236.00
2019-05-03T07:40:35.375Z,6560.00
2019-05-03T07:41:35.682Z,6572.00
2019-05-03T07:42:36.020Z,6812.00
2019-05-03T07:43:36.064Z,7064.00
2019-05-03T07:44:35.337Z,6972.00
2019-05-03T07:45:35.509Z,6904.00
2019-05-03T07:46:35.254Z,6812.00
2019-05-03T07:47:35.214Z,6656.00
2019-05-03T07:48:35.443Z,6524.00
2019-05-03T07:49:35.813Z,6580.00
2019-05-03T07:50:35.717Z,6568.00
2019-05-03T07:51:35.131Z,6572.00
2019-05-03T07:52:35.170Z,6684.00
2019-05-03T07:53:35.112Z,6824.00
2019-05-03T07:54:35.100Z,7016.00
2019-05-03T07:55:35.324Z,7376.00
2019-05-03T07:56:35.589Z,8108.00
2019-05-03T07:57:35.699Z,15040.00
2019-05-03T07:58:35.293Z,15392.00
2019-05-03T07:59:35.671Z,12040.00
2019-05-03T08:00:35.528Z,11144.00
2019-05-03T08:01:35.731Z,11052.00
2019-05-03T08:02:36.075Z,11064.00
2019-05-03T08:03:35.003Z,11044.00
2019-05-03T08:04:35.876Z,10960.00
2019-05-03T08:05:35.059Z,11128.00
2019-05-03T08:06:34.972Z,11120.00
2019-05-03T08:07:35.626Z,11128.00
2019-05-03T08:08:35.499Z,10528.00
2019-05-03T08:09:35.162Z,9556.00
2019-05-03T08:10:35.369Z,11536.00
2019-05-03T08:11:35.242Z,15968.00
2019-05-03T08:12:35.033Z,16928.00
2019-05-03T08:13:35.681Z,16896.00
2019-05-03T08:14:35.646Z,12524.00
2019-05-03T08:15:34.983Z,17600.00
2019-05-03T08:16:35.387Z,16832.00
2019-05-03T08:17:34.944Z,16992.00
2019-05-03T08:18:35.470Z,17376.00
2019-05-03T08:19:35.736Z,17728.00
2019-05-03T08:20:36.034Z,17504.00
2019-05-03T08:21:37.984Z,17632.00
2019-05-03T08:22:34.786Z,18304.00
2019-05-03T08:23:35.351Z,18656.00
2019-05-03T08:24:34.816Z,12732.00
2019-05-03T08:25:35.443Z,12044.00
2019-05-03T08:26:35.167Z,11956.00
2019-05-03T08:27:35.409Z,12124.00
2019-05-03T08:28:34.778Z,12884.00
2019-05-03T08:29:35.311Z,13084.00
2019-05-03T08:30:35.413Z,12396.00
2019-05-03T08:31:35.371Z,12324.00
2019-05-03T08:32:35.346Z,12104.00
2019-05-03T08:33:35.508Z,11680.00
2019-05-03T08:34:35.002Z,11416.00
2019-05-03T08:35:35.587Z,11500.00
2019-05-03T08:36:34.983Z,12452.00
2019-05-03T08:37:35.000Z,12136.00
2019-05-03T08:38:34.627Z,12764.00
2019-05-03T08:39:35.613Z,12972.00
2019-05-03T08:40:35.012Z,16448.00
2019-05-03T08:41:35.207Z,13840.00
2019-05-03T08:42:35.192Z,21856.00
2019-05-03T08:43:35.807Z,19744.00
2019-05-03T08:44:35.324Z,20608.00
2019-05-03T08:45:34.761Z,21440.00
2019-05-03T08:46:35.596Z,14128.00
2019-05-03T08:47:34.577Z,14036.00
2019-05-03T08:48:35.472Z,14156.00
2019-05-03T08:49:34.916Z,14060.00
2019-05-03T08:50:34.895Z,13780.00
2019-05-03T08:51:35.208Z,19520.00
2019-05-03T08:52:34.845Z,16320.00
2019-05-03T08:53:35.794Z,18464.00
2019-05-03T08:54:34.861Z,14084.00
2019-05-03T08:55:35.204Z,17088.00
2019-05-03T08:56:34.872Z,14024.00
2019-05-03T08:57:35.419Z,19872.00
2019-05-03T08:58:34.909Z,20256.00
2019-05-03T08:59:35.705Z,20768.00
2019-05-03T09:00:35.289Z,21440.00
2019-05-03T09:01:36.442Z,21376.00
2019-05-03T09:02:34.638Z,21888.00
2019-05-03T09:03:37.945Z,22848.00
2019-05-03T09:04:38.096Z,22208.00
2019-05-03T09:05:35.993Z,22208.00
2019-05-03T09:06:35.500Z,15732.00
2019-05-03T09:07:35.487Z,15132.00
2019-05-03T09:08:35.420Z,14776.00
2019-05-03T09:09:34.884Z,14444.00
2019-05-03T09:10:35.231Z,13932.00
2019-05-03T09:11:36.862Z,13644.00
2019-05-03T09:12:34.380Z,13484.00
2019-05-03T09:13:34.365Z,13660.00
2019-05-03T09:14:42.435Z,13516.00
2019-05-03T09:15:35.084Z,12804.00
2019-05-03T09:17:44.700Z,11452.00
2019-05-03T09:18:45.586Z,10008.00
2019-05-03T09:19:45.598Z,9796.00
2019-05-03T09:20:45.504Z,9212.00
2019-05-03T09:21:45.500Z,8632.00
2019-05-03T09:22:45.603Z,8332.00
2019-05-03T09:23:45.490Z,8088.00
2019-05-03T09:24:45.761Z,7532.00
2019-05-03T09:25:45.954Z,7112.00
2019-05-03T09:26:45.628Z,6988.00
2019-05-03T09:27:45.528Z,6756.00
2019-05-03T09:28:45.565Z,6668.00
2019-05-03T09:29:46.247Z,6712.00
2019-05-03T09:30:45.392Z,6928.00
2019-05-03T09:31:45.415Z,7300.00
2019-05-03T09:32:45.481Z,7728.00
2019-05-03T09:33:45.442Z,8140.00
2019-05-03T09:34:45.488Z,8672.00
2019-05-03T09:35:45.892Z,10488.00
2019-05-03T09:36:45.339Z,17376.00
2019-05-03T09:37:45.351Z,17888.00
2019-05-03T09:38:45.917Z,18624.00
2019-05-03T09:39:45.306Z,19936.00
2019-05-03T09:40:45.587Z,21216.00
2019-05-03T09:41:45.267Z,22336.00
2019-05-03T09:42:45.272Z,23328.00
2019-05-03T09:43:45.371Z,18112.00
2019-05-03T09:44:45.271Z,19712.00
2019-05-03T09:45:45.885Z,18080.00
2019-05-03T09:46:45.298Z,24256.00
2019-05-03T09:47:45.222Z,26144.00
2019-05-03T09:48:45.619Z,21696.00
2019-05-03T09:49:45.498Z,17600.00
2019-05-03T09:50:45.416Z,17088.00
2019-05-03T09:51:45.165Z,16768.00
2019-05-03T09:52:47.132Z,16344.00
2019-05-03T09:53:45.155Z,16328.00
2019-05-03T09:54:45.426Z,16376.00
2019-05-03T09:55:45.113Z,16188.00
2019-05-03T09:56:55.015Z,15948.00
2019-05-03T09:57:45.090Z,15848.00
2019-05-03T09:58:46.119Z,15796.00
2019-05-03T09:59:56.417Z,15668.00
2019-05-03T10:00:45.064Z,15708.00
2019-05-03T10:01:45.595Z,15108.00
2019-05-03T10:02:45.128Z,14744.00
2019-05-03T10:03:45.312Z,16832.00
2019-05-03T10:04:45.281Z,21152.00
2019-05-03T10:05:45.808Z,21632.00
2019-05-03T10:06:45.665Z,21568.00
2019-05-03T10:07:45.603Z,20736.00
2019-05-03T10:08:45.486Z,18624.00
2019-05-03T10:09:45.256Z,14416.00
2019-05-03T10:10:44.938Z,14412.00
2019-05-03T10:11:45.948Z,13108.00
2019-05-03T10:12:44.956Z,12868.00
2019-05-03T10:13:48.421Z,12616.00
2019-05-03T10:14:45.261Z,12460.00
2019-05-03T10:15:45.135Z,11684.00
2019-05-03T10:16:44.982Z,10792.00
2019-05-03T10:17:45.837Z,10140.00
2019-05-03T10:18:45.968Z,9308.00
2019-05-03T10:19:45.261Z,8616.00
2019-05-03T10:20:44.827Z,8096.00
2019-05-03T10:21:44.958Z,7732.00
2019-05-03T10:22:44.884Z,7576.00
2019-05-03T10:23:45.335Z,7580.00
2019-05-03T10:24:45.340Z,7600.00
2019-05-03T10:25:45.716Z,7724.00
2019-05-03T10:26:45.588Z,7988.00
2019-05-03T10:27:45.724Z,8408.00
2019-05-03T10:28:44.774Z,8752.00
2019-05-03T10:29:44.840Z,8992.00
2019-05-03T10:30:45.106Z,9252.00
2019-05-03T10:31:44.947Z,9356.00
2019-05-03T10:32:45.025Z,9392.00
2019-05-03T10:33:45.203Z,9368.00
2019-05-03T10:35:54.540Z,8896.00
2019-05-03T10:36:54.935Z,8760.00
2019-05-03T10:37:54.990Z,8740.00
2019-05-03T10:38:55.385Z,8792.00
2019-05-03T10:39:55.983Z,9008.00
2019-05-03T10:40:55.067Z,9580.00
2019-05-03T10:41:55.027Z,10288.00
2019-05-03T10:42:55.270Z,14360.00
2019-05-03T10:43:55.837Z,11660.00
2019-05-03T10:44:55.557Z,12272.00
2019-05-03T10:45:55.821Z,13532.00
2019-05-03T10:46:55.948Z,16064.00
2019-05-03T10:47:56.611Z,15484.00
2019-05-03T10:48:55.835Z,23584.00
2019-05-03T10:49:55.101Z,19008.00
2019-05-03T10:50:56.434Z,16512.00
2019-05-03T10:51:54.887Z,14968.00
2019-05-03T10:52:55.514Z,15284.00
2019-05-03T10:53:54.802Z,15632.00
2019-05-03T10:54:55.849Z,14936.00
2019-05-03T10:55:55.653Z,14644.00
2019-05-03T10:56:55.877Z,14216.00
2019-05-03T10:57:54.481Z,15428.00
2019-05-03T10:58:54.979Z,16448.00
2019-05-03T10:59:55.515Z,16160.00
2019-05-03T11:00:56.722Z,17664.00
2019-05-03T11:01:54.603Z,20192.00
2019-05-03T11:02:55.054Z,21696.00
2019-05-03T11:03:54.574Z,22112.00
2019-05-03T11:04:54.969Z,23168.00
2019-05-03T11:05:54.848Z,25024.00
2019-05-03T11:06:55.095Z,26336.00
2019-05-03T11:07:55.636Z,25312.00
2019-05-03T11:08:54.659Z,25600.00
2019-05-03T11:09:55.092Z,26592.00
2019-05-03T11:10:54.932Z,18624.00
2019-05-03T11:11:55.649Z,17760.00
2019-05-03T11:12:54.834Z,16992.00
2019-05-03T11:13:54.286Z,16104.00
2019-05-03T11:14:54.300Z,14952.00
2019-05-03T11:15:54.892Z,13596.00
2019-05-03T11:16:55.245Z,12464.00
2019-05-03T11:17:54.924Z,11576.00
2019-05-03T11:18:54.919Z,10744.00
2019-05-03T11:19:54.751Z,10004.00
2019-05-03T11:20:54.602Z,9508.00
2019-05-03T11:21:54.759Z,9240.00
2019-05-03T11:22:54.790Z,8992.00
2019-05-03T11:23:54.609Z,8876.00
2019-05-03T11:24:54.636Z,8944.00
2019-05-03T11:25:55.472Z,9208.00
2019-05-03T11:26:55.790Z,9456.00
2019-05-03T11:27:55.201Z,9916.00
2019-05-03T11:29:00.221Z,12044.00
2019-05-03T11:29:55.566Z,9960.00
2019-05-03T11:30:59.902Z,10156.00
2019-05-03T11:31:55.110Z,9716.00
2019-05-03T11:32:55.641Z,10036.00
2019-05-03T11:33:55.329Z,10092.00
2019-05-03T11:34:55.370Z,10668.00
2019-05-03T11:35:55.238Z,10540.00
2019-05-03T11:36:54.881Z,10920.00
2019-05-03T11:37:54.034Z,11848.00
2019-05-03T11:38:55.745Z,14628.00
2019-05-03T11:39:55.854Z,22752.00
2019-05-03T11:40:55.955Z,20480.00
2019-05-03T11:41:53.986Z,24928.00
2019-05-03T11:42:55.351Z,24128.00
2019-05-03T11:43:53.964Z,19904.00
2019-05-03T11:44:53.973Z,16768.00
2019-05-03T11:45:55.471Z,16024.00
2019-05-03T11:46:55.132Z,15852.00
2019-05-03T11:47:55.073Z,15988.00
2019-05-03T11:48:54.847Z,16576.00
2019-05-03T11:49:54.638Z,16576.00
2019-05-03T11:50:54.598Z,16312.00
2019-05-03T11:51:55.649Z,16072.00
2019-05-03T11:52:55.441Z,16048.00
2019-05-03T11:53:53.975Z,16736.00
2019-05-03T11:54:55.267Z,24832.00
2019-05-03T11:55:55.151Z,14528.00
2019-05-03T11:56:55.664Z,13268.00
2019-05-03T11:57:53.845Z,12092.00
2019-05-03T11:58:55.007Z,11352.00
2019-05-03T11:59:54.821Z,10912.00
2019-05-03T12:01:10.768Z,10388.00
2019-05-03T12:01:55.330Z,9540.00
2019-05-03T12:02:55.573Z,8576.00
2019-05-03T12:03:55.559Z,7748.00
2019-05-03T12:04:55.246Z,7236.00
2019-05-03T12:05:55.225Z,6840.00
2019-05-03T12:06:55.015Z,6864.00
2019-05-03T12:07:54.768Z,7080.00
2019-05-03T12:08:55.366Z,7200.00
2019-05-03T12:09:54.680Z,7308.00
2019-05-03T12:10:58.602Z,7396.00
2019-05-03T12:11:55.329Z,7680.00
2019-05-03T12:12:55.347Z,8204.00
2019-05-03T12:14:02.443Z,8912.00
2019-05-03T12:14:54.832Z,9932.00
2019-05-03T12:15:55.215Z,11208.00
2019-05-03T12:17:13.051Z,12832.00
2019-05-03T12:17:56.283Z,13704.00
2019-05-03T12:18:54.498Z,14980.00
2019-05-03T12:19:56.797Z,13804.00
2019-05-03T12:20:56.247Z,13428.00
2019-05-03T12:21:54.148Z,12588.00
2019-05-03T12:22:54.053Z,11460.00
2019-05-03T12:23:56.143Z,10444.00
2019-05-03T12:24:54.067Z,9616.00
2019-05-03T12:25:54.019Z,9004.00
2019-05-03T12:26:55.679Z,8468.00
2019-05-03T12:27:53.482Z,7888.00
2019-05-03T12:28:53.479Z,7588.00